Bringhurst, Indiana
Current Conditions -  °F | °C
As of 9:15 AM on Monday 20 Oct 2014 (Local Time) from KGGP Reporting Station
Scattered Clouds Scattered Clouds  
Wind Chill: 50°   Ceiling: Unl
Heat Index: 50°   Visibility: 10mi
Dew Point: 45°   Wind: 12mph
Humidity: 82%   Direction: 210°SSW
Pressure: 29.88"   Gusts: NA
Location:  40.53°N, 86.52°W
Report Text: KGGP 201315Z AUTO 21010KT 10SM SCT080 SCT120 10/07 A2988 RMK AO2
Loading
Personal Weather Stations






























Interactive Weather Map New forecast layout! Learn more

10-Day Weather Forecast

Advertisements
Track Severe Weather on mobile